Time;durP1;ratioP1;P1;durP2;ratioP2;P2;SDS_P1;SDS_P2;PMS_P1;PMS_P2;Temp;Humidity;BMP_temperature;BMP_pressure;BME280_temperature;BME280_humidity;BME280_pressure;Samples;Min_cycle;Max_cycle;Signal;HPM_P1;HPM_P2
2023/09/22 00:02:07;;;;;;;0.80;0.30;;;;;;;-143.84;86.31;45100.47;5090465;28;20447;-60
2023/09/22 00:04:35;;;;;;;0.90;0.50;;;;;;;-143.84;86.91;45098.56;5090451;28;20477;-60
2023/09/22 00:07:02;;;;;;;0.80;0.40;;;;;;;-143.84;86.99;45083.34;5090344;28;20435;-60
2023/09/22 00:09:32;;;;;;;0.80;0.30;;;;;;;-143.84;86.98;45110.00;5090606;28;20534;-60
2023/09/22 00:12:00;;;;;;;0.80;0.40;;;;;;;-143.84;86.67;45073.81;5090925;28;20448;-60
2023/09/22 00:14:27;;;;;;;0.80;0.30;;;;;;;-143.84;86.80;45119.53;5090450;28;20795;-60
2023/09/22 00:16:54;;;;;;;0.80;0.30;;;;;;;-143.84;87.11;45108.09;5090427;28;20436;-60
2023/09/22 00:19:21;;;;;;;0.80;0.30;;;;;;;-143.84;87.20;45092.88;5090119;28;20486;-60
2023/09/22 00:21:48;;;;;;;0.80;0.30;;;;;;;-143.84;87.40;45117.63;5090207;28;20443;-60
2023/09/22 00:24:15;;;;;;;0.90;0.50;;;;;;;-143.84;87.74;45083.34;5090622;28;20440;-60
2023/09/22 00:26:44;;;;;;;0.80;0.40;;;;;;;-143.84;88.02;45077.63;5090462;28;20448;-60
2023/09/22 00:29:11;;;;;;;0.80;0.30;;;;;;;-143.84;88.34;45111.91;5090179;28;20592;-60
2023/09/22 00:31:38;;;;;;;0.80;0.30;;;;;;;-143.84;88.49;45129.03;5090271;28;20479;-60
2023/09/22 00:34:05;;;;;;;0.80;0.30;;;;;;;-143.84;88.76;45090.97;5090060;28;20440;-60
2023/09/22 00:36:34;;;;;;;0.80;0.30;;;;;;;-143.84;88.89;45096.66;5089922;28;21022;-61
2023/09/22 00:39:01;;;;;;;0.80;0.30;;;;;;;-143.84;88.78;45110.00;5090161;28;20945;-61
2023/09/22 00:41:28;;;;;;;0.80;0.40;;;;;;;-143.84;88.50;45110.00;5089946;28;20440;-60
2023/09/22 00:43:56;;;;;;;0.80;0.30;;;;;;;-143.84;89.08;45098.56;5089935;28;20485;-60
2023/09/22 00:46:27;;;;;;;0.80;0.30;;;;;;;-143.84;89.26;45134.75;5089747;28;20544;-60
2023/09/22 00:48:57;;;;;;;0.80;0.37;;;;;;;-143.84;89.86;45111.91;5089563;28;20540;-60
2023/09/22 00:51:24;;;;;;;0.80;0.30;;;;;;;-143.84;90.21;45096.66;5089425;28;20447;-60
2023/09/22 00:53:52;;;;;;;0.80;0.30;;;;;;;-143.84;90.21;45089.06;5089509;28;20451;-60
2023/09/22 00:56:21;;;;;;;0.80;0.30;;;;;;;-143.84;90.23;45098.56;5089582;28;20522;-60
2023/09/22 00:58:50;;;;;;;0.80;0.30;;;;;;;-143.84;90.20;45113.81;5089743;28;20436;-60
2023/09/22 01:01:20;;;;;;;0.80;0.30;;;;;;;-143.84;90.43;45087.16;5089388;28;20443;-60
2023/09/22 01:03:48;;;;;;;0.80;0.40;;;;;;;-143.84;90.72;45110.00;5089573;28;20448;-60
2023/09/22 01:06:15;;;;;;;0.80;0.30;;;;;;;-143.84;90.47;45090.97;5089282;28;20477;-60
2023/09/22 01:08:42;;;;;;;0.80;0.30;;;;;;;-143.84;90.60;45121.44;5089709;28;20510;-60
2023/09/22 01:11:10;;;;;;;0.80;0.30;;;;;;;-143.84;90.61;45130.94;5089477;28;21007;-60
2023/09/22 01:13:37;;;;;;;0.80;0.30;;;;;;;-143.84;90.60;45110.00;5089423;28;21115;-60
2023/09/22 01:16:04;;;;;;;0.80;0.40;;;;;;;-143.84;91.40;45106.19;5089182;28;20509;-60
2023/09/22 01:18:33;;;;;;;0.80;0.30;;;;;;;-143.84;91.34;45132.84;5089674;28;20479;-61
2023/09/22 01:21:00;;;;;;;0.80;0.30;;;;;;;-143.84;91.02;45111.91;5089216;28;20451;-60
2023/09/22 01:23:28;;;;;;;0.80;0.33;;;;;;;-143.84;90.92;45111.91;5089196;28;20503;-60
2023/09/22 01:25:55;;;;;;;0.80;0.30;;;;;;;-143.84;90.78;45098.56;5088944;28;20482;-60
2023/09/22 01:28:23;;;;;;;0.80;0.30;;;;;;;-143.84;90.49;45119.53;5088934;28;20471;-60
2023/09/22 01:30:50;;;;;;;0.80;0.30;;;;;;;-143.84;89.91;45111.91;5088812;28;20489;-60
2023/09/22 01:33:18;;;;;;;0.80;0.30;;;;;;;-143.84;89.56;45104.28;5089066;28;20444;-60
2023/09/22 01:35:45;;;;;;;0.80;0.40;;;;;;;-143.84;88.92;45125.22;5088856;28;20483;-60
2023/09/22 01:38:14;;;;;;;0.80;0.30;;;;;;;-143.84;88.55;45110.00;5088814;28;20444;-60
2023/09/22 01:40:43;;;;;;;0.80;0.40;;;;;;;-143.84;88.03;45108.09;5088835;28;20941;-60
2023/09/22 01:43:11;;;;;;;0.80;0.30;;;;;;;-143.84;87.30;45115.72;5088830;28;20436;-60
2023/09/22 01:45:39;;;;;;;0.80;0.30;;;;;;;-143.84;87.20;45083.34;5088999;28;20440;-60
2023/09/22 01:48:07;;;;;;;0.80;0.30;;;;;;;-143.84;87.24;45087.16;5088644;28;20485;-60
2023/09/22 01:50:37;;;;;;;0.80;0.40;;;;;;;-143.84;87.90;45119.53;5089185;28;20444;-60
2023/09/22 01:53:04;;;;;;;0.80;0.30;;;;;;;-143.84;89.16;45110.00;5088500;28;20454;-60
2023/09/22 01:55:32;;;;;;;0.80;0.30;;;;;;;-143.84;89.53;45094.78;5088939;28;20470;-60
2023/09/22 01:58:00;;;;;;;0.80;0.30;;;;;;;-143.84;90.08;45087.16;5088722;28;20879;-60
2023/09/22 02:00:27;;;;;;;0.80;0.40;;;;;;;-143.84;90.87;45115.72;5088818;28;20504;-60
2023/09/22 02:02:55;;;;;;;0.80;0.30;;;;;;;-143.84;91.49;45106.19;5088593;28;20440;-60
2023/09/22 02:05:22;;;;;;;0.80;0.40;;;;;;;-143.84;91.61;45102.38;5088586;28;20446;-60
2023/09/22 02:07:50;;;;;;;0.80;0.30;;;;;;;-143.84;91.43;45119.53;5088580;28;20493;-60
2023/09/22 02:10:17;;;;;;;0.80;0.30;;;;;;;-143.84;91.13;45094.78;5088733;28;20513;-60
2023/09/22 02:12:44;;;;;;;0.80;0.30;;;;;;;-143.84;91.17;45092.88;5090057;28;20436;-60
2023/09/22 02:15:14;;;;;;;0.80;0.30;;;;;;;-143.84;90.89;45106.19;5092670;28;20439;-60
2023/09/22 02:17:41;;;;;;;0.80;0.40;;;;;;;-143.84;90.69;45094.78;5092518;28;20447;-60
2023/09/22 02:20:17;;;;;;;0.80;0.40;;;;;;;-143.84;90.38;45136.66;5092645;28;20440;-60
2023/09/22 02:22:45;;;;;;;0.80;0.40;;;;;;;-143.84;90.18;45098.56;5092555;28;20474;-60
2023/09/22 02:25:15;;;;;;;0.80;0.40;;;;;;;-143.84;89.74;45090.97;5092676;28;20451;-60
2023/09/22 02:27:42;;;;;;;0.80;0.30;;;;;;;-143.84;89.46;45115.72;5092261;28;20443;-60
2023/09/22 02:30:10;;;;;;;0.80;0.30;;;;;;;-143.84;89.07;45123.34;5092291;28;20833;-60
2023/09/22 02:32:42;;;;;;;0.80;0.30;;;;;;;-143.84;90.24;45106.19;5092360;28;20542;-60
2023/09/22 02:35:11;;;;;;;0.80;0.30;;;;;;;-143.84;90.34;45098.56;5092380;28;20479;-60
2023/09/22 02:37:38;;;;;;;0.80;0.30;;;;;;;-143.84;90.35;45108.09;5092133;28;20440;-60
2023/09/22 02:40:06;;;;;;;0.80;0.30;;;;;;;-143.84;91.04;45096.66;5092384;28;20493;-60
2023/09/22 02:42:33;;;;;;;0.80;0.30;;;;;;;-143.84;91.53;45134.75;5092327;28;20436;-60
2023/09/22 02:45:01;;;;;;;0.80;0.30;;;;;;;-143.84;92.03;45115.72;5091961;28;20504;-60
2023/09/22 02:47:28;;;;;;;0.80;0.30;;;;;;;-143.84;92.01;45111.91;5092031;28;20832;-60
2023/09/22 02:49:57;;;;;;;0.80;0.30;;;;;;;-143.84;92.05;45100.47;5091463;28;20480;-60
2023/09/22 02:52:24;;;;;;;0.80;0.40;;;;;;;-143.84;92.15;45106.19;5091247;28;20448;-60
2023/09/22 02:54:54;;;;;;;0.80;0.40;;;;;;;-143.84;92.03;45115.72;5090866;28;20439;-60
2023/09/22 02:57:21;;;;;;;0.80;0.30;;;;;;;-143.84;92.10;45083.34;5091420;28;20439;-60
2023/09/22 02:59:53;;;;;;;0.80;0.30;;;;;;;-143.84;92.34;45106.19;5091188;28;20522;-61
2023/09/22 03:02:20;;;;;;;0.80;0.30;;;;;;;-143.84;92.12;45102.38;5090930;28;20440;-61
2023/09/22 03:04:48;;;;;;;0.80;0.30;;;;;;;-143.84;92.07;45083.34;5091014;28;20960;-61
2023/09/22 03:07:16;;;;;;;0.80;0.30;;;;;;;-143.84;92.12;45100.47;5091079;28;20439;-61
2023/09/22 03:09:43;;;;;;;0.80;0.30;;;;;;;-143.84;92.01;45113.81;5091098;28;20489;-61
2023/09/22 03:12:11;;;;;;;0.80;0.30;;;;;;;-143.84;92.06;45102.38;5091616;28;20435;-61
2023/09/22 03:14:38;;;;;;;0.80;0.30;;;;;;;-143.84;91.43;45113.81;5091578;28;20440;-61
2023/09/22 03:17:06;;;;;;;0.80;0.30;;;;;;;-143.84;91.53;45100.47;5091364;28;20432;-61
2023/09/22 03:19:33;;;;;;;0.80;0.30;;;;;;;-143.84;92.04;45089.06;5091313;28;20480;-60
2023/09/22 03:22:00;;;;;;;0.80;0.30;;;;;;;-143.84;92.95;45115.72;5091570;28;20436;-60
2023/09/22 03:24:29;;;;;;;0.80;0.30;;;;;;;-143.84;92.89;45102.38;5091446;28;20453;-60
2023/09/22 03:26:56;;;;;;;0.80;0.30;;;;;;;-143.84;93.43;45090.97;5091221;28;20440;-60
2023/09/22 03:29:23;;;;;;;0.80;0.30;;;;;;;-143.84;93.85;45102.38;5091131;28;20529;-60
2023/09/22 03:31:50;;;;;;;0.80;0.30;;;;;;;-143.84;93.93;45132.84;5091437;28;20435;-60
2023/09/22 03:34:17;;;;;;;0.80;0.30;;;;;;;-143.84;94.16;45104.28;5091359;28;20447;-60
2023/09/22 03:36:44;;;;;;;0.80;0.30;;;;;;;-143.84;94.23;45129.03;5091135;28;20457;-60
2023/09/22 03:39:12;;;;;;;0.80;0.30;;;;;;;-143.84;94.27;45094.78;5091236;28;20440;-60
2023/09/22 03:41:42;;;;;;;0.80;0.40;;;;;;;-143.84;94.98;45121.44;5091234;28;20820;-61
2023/09/22 03:44:09;;;;;;;0.80;0.30;;;;;;;-143.84;94.81;45104.28;5090995;28;21020;-61
2023/09/22 03:46:36;;;;;;;0.80;0.40;;;;;;;-143.84;94.95;45129.03;5090918;28;20521;-61
2023/09/22 03:49:05;;;;;;;0.80;0.30;;;;;;;-143.84;95.05;45142.38;5091002;28;20556;-61
2023/09/22 03:51:32;;;;;;;0.80;0.30;;;;;;;-143.84;95.15;45134.75;5090999;28;20816;-60
2023/09/22 03:53:59;;;;;;;0.80;0.30;;;;;;;-143.84;95.11;45127.13;5090891;28;20466;-60
2023/09/22 03:56:26;;;;;;;0.80;0.30;;;;;;;-143.84;95.45;45119.53;5090773;28;20431;-60
2023/09/22 03:58:55;;;;;;;0.80;0.30;;;;;;;-143.84;95.15;45113.81;5090541;28;20460;-60
2023/09/22 04:01:22;;;;;;;0.80;0.30;;;;;;;-143.84;95.58;45117.63;5090818;28;20452;-60
2023/09/22 04:03:50;;;;;;;0.80;0.40;;;;;;;-143.84;95.50;45092.88;5090552;28;20501;-60
2023/09/22 04:06:18;;;;;;;0.80;0.30;;;;;;;-143.84;95.42;45094.78;5091011;28;20451;-60
2023/09/22 04:08:45;;;;;;;0.80;0.30;;;;;;;-143.84;95.70;45110.00;5090338;28;20487;-60
2023/09/22 04:11:14;;;;;;;0.80;0.40;;;;;;;-143.84;95.50;45090.97;5090402;28;20467;-60
2023/09/22 04:13:42;;;;;;;0.80;0.40;;;;;;;-143.84;95.35;45115.72;5090317;28;20440;-60
2023/09/22 04:16:10;;;;;;;0.80;0.30;;;;;;;-143.84;95.35;45123.34;5090662;28;20497;-60
2023/09/22 04:18:37;;;;;;;0.80;0.30;;;;;;;-143.84;95.40;45102.38;5090232;28;20487;-60
2023/09/22 04:21:07;;;;;;;0.80;0.40;;;;;;;-143.84;95.67;45125.22;5090411;28;20458;-60
2023/09/22 04:23:34;;;;;;;0.80;0.30;;;;;;;-143.84;95.59;45096.66;5090291;28;20440;-60
2023/09/22 04:26:09;;;;;;;0.80;0.30;;;;;;;-143.84;95.59;45106.19;5090225;28;20478;-60
2023/09/22 04:28:36;;;;;;;0.80;0.30;;;;;;;-143.84;95.62;45110.00;5090127;28;20538;-60
2023/09/22 04:31:03;;;;;;;0.80;0.30;;;;;;;-143.84;95.36;45106.19;5090200;28;20436;-60
2023/09/22 04:33:33;;;;;;;0.80;0.30;;;;;;;-143.84;95.64;45100.47;5089961;28;20436;-61
2023/09/22 04:36:00;;;;;;;0.80;0.40;;;;;;;-143.84;95.22;45142.38;5089528;28;20532;-60
2023/09/22 04:38:27;;;;;;;0.80;0.30;;;;;;;-143.84;95.13;45092.88;5090473;28;20469;-60
2023/09/22 04:40:58;;;;;;;0.80;0.30;;;;;;;-143.84;95.18;45113.81;5090092;28;20447;-60
2023/09/22 04:43:25;;;;;;;0.80;0.30;;;;;;;-143.84;95.00;45104.28;5089734;28;20862;-60
2023/09/22 04:45:52;;;;;;;0.80;0.30;;;;;;;-143.84;94.83;45096.66;5089622;28;20436;-60
2023/09/22 04:48:19;;;;;;;0.80;0.30;;;;;;;-143.84;94.80;45129.03;5089753;28;20475;-60
2023/09/22 04:50:54;;;;;;;0.80;0.30;;;;;;;-143.84;95.26;45083.34;5086743;28;20831;-60
2023/09/22 04:53:21;;;;;;;0.80;0.30;;;;;;;-143.84;94.96;45089.06;5089213;28;20440;-60
2023/09/22 04:55:48;;;;;;;0.80;0.30;;;;;;;-143.84;94.84;45098.56;5090120;28;20941;-60
2023/09/22 04:58:16;;;;;;;0.80;0.30;;;;;;;-143.84;94.31;45111.91;5089468;28;20447;-60
2023/09/22 05:00:43;;;;;;;0.80;0.30;;;;;;;-143.84;93.31;45117.63;5089730;28;20463;-60
2023/09/22 05:03:10;;;;;;;0.80;0.30;;;;;;;-143.84;92.97;45111.91;5089440;28;20436;-60
2023/09/22 05:05:37;;;;;;;0.80;0.30;;;;;;;-143.84;92.49;45113.81;5073858;28;20459;-60
2023/09/22 05:08:07;;;;;;;0.80;0.30;;;;;;;-143.84;92.37;45100.47;5069404;28;20973;-60
2023/09/22 05:10:34;;;;;;;0.80;0.30;;;;;;;-143.84;91.89;45096.66;5069421;28;20603;-60
2023/09/22 05:13:03;;;;;;;0.80;0.40;;;;;;;-143.84;92.17;45111.91;5069479;28;20441;-60
2023/09/22 05:15:31;;;;;;;0.80;0.30;;;;;;;-143.84;91.26;45083.34;5069167;28;20449;-60
2023/09/22 05:17:58;;;;;;;0.80;0.30;;;;;;;-143.84;90.99;45090.97;5068868;28;20504;-60
2023/09/22 05:20:26;;;;;;;0.80;0.30;;;;;;;-143.84;90.01;45108.09;5068988;28;20954;-60
2023/09/22 05:22:53;;;;;;;0.80;0.30;;;;;;;-143.84;89.97;45092.88;5069047;28;20448;-60
2023/09/22 05:25:21;;;;;;;0.80;0.40;;;;;;;-143.84;89.32;45098.56;5069137;28;20494;-59
2023/09/22 05:27:48;;;;;;;0.80;0.30;;;;;;;-143.84;89.13;45117.63;5069048;28;20495;-59
2023/09/22 05:30:16;;;;;;;0.80;0.30;;;;;;;-143.84;89.17;45113.81;5068680;28;20487;-60
2023/09/22 05:32:43;;;;;;;0.80;0.30;;;;;;;-143.84;89.23;45087.16;5079991;28;20455;-60
2023/09/22 05:35:10;;;;;;;0.80;0.30;;;;;;;-143.84;89.13;45087.16;5089249;28;20950;-60
2023/09/22 05:37:38;;;;;;;0.80;0.40;;;;;;;-143.84;89.87;45079.53;5088863;28;20526;-60
2023/09/22 05:40:11;;;;;;;0.80;0.30;;;;;;;-143.84;89.52;45100.47;5089016;28;20459;-60
2023/09/22 05:42:42;;;;;;;0.80;0.30;;;;;;;-143.84;89.45;45094.78;5088866;28;20545;-60
2023/09/22 05:45:10;;;;;;;0.80;0.30;;;;;;;-143.84;89.57;45115.72;5088965;28;20476;-60
2023/09/22 05:47:37;;;;;;;0.80;0.43;;;;;;;-143.84;89.89;45058.59;5088267;28;20821;-60
2023/09/22 05:50:05;;;;;;;0.80;0.40;;;;;;;-143.84;90.05;45117.63;5088868;28;20552;-60
2023/09/22 05:52:33;;;;;;;0.80;0.40;;;;;;;-143.84;90.20;45087.16;5088668;28;21226;-60
2023/09/22 05:55:00;;;;;;;0.80;0.40;;;;;;;-143.84;90.50;45104.28;5088819;28;20443;-60
2023/09/22 05:57:27;;;;;;;0.80;0.30;;;;;;;-143.84;90.13;45087.16;5088850;28;20933;-60
2023/09/22 05:59:57;;;;;;;0.80;0.40;;;;;;;-143.84;90.32;45090.97;5088901;28;20444;-60
2023/09/22 06:02:25;;;;;;;0.80;0.30;;;;;;;-143.84;89.47;45123.34;5088763;28;20536;-60
2023/09/22 06:04:55;;;;;;;0.80;0.30;;;;;;;-143.84;89.39;45068.13;5088810;28;20436;-60
2023/09/22 06:07:22;;;;;;;0.80;0.40;;;;;;;-143.84;88.70;45098.56;5088665;28;20436;-60
2023/09/22 06:09:50;;;;;;;0.80;0.30;;;;;;;-143.84;87.51;45079.53;5088252;28;20487;-60
2023/09/22 06:12:17;;;;;;;0.80;0.40;;;;;;;-143.84;87.50;45089.06;5088681;28;20783;-60
2023/09/22 06:14:44;;;;;;;0.80;0.30;;;;;;;-143.84;86.58;45106.19;5088596;28;20440;-60
2023/09/22 06:17:13;;;;;;;0.80;0.40;;;;;;;-143.84;87.37;45085.25;5088596;28;20451;-60
2023/09/22 06:19:40;;;;;;;0.80;0.30;;;;;;;-143.84;86.96;45068.13;5088525;28;20490;-60
2023/09/22 06:22:10;;;;;;;0.80;0.50;;;;;;;-143.84;85.52;45090.97;5088490;28;20444;-60
2023/09/22 06:24:37;;;;;;;0.80;0.40;;;;;;;-143.84;84.00;45071.91;5088104;28;20816;-60
2023/09/22 06:27:04;;;;;;;0.80;0.30;;;;;;;-143.84;83.12;45079.53;5088265;28;20522;-60
2023/09/22 06:29:31;;;;;;;0.80;0.40;;;;;;;-143.84;82.92;45092.88;5088362;28;21000;-60
2023/09/22 06:31:58;;;;;;;0.80;0.60;;;;;;;-143.84;82.61;45079.53;5088286;28;20450;-60
2023/09/22 06:34:27;;;;;;;0.80;0.30;;;;;;;-143.84;81.43;45090.97;5088405;28;20448;-60
2023/09/22 06:36:54;;;;;;;0.80;0.30;;;;;;;-143.84;81.47;45096.66;5088585;28;20447;-60
2023/09/22 06:39:21;;;;;;;0.80;0.30;;;;;;;-143.84;82.02;45081.44;5088212;28;20928;-60
2023/09/22 06:41:48;;;;;;;0.80;0.30;;;;;;;-143.84;80.65;45068.13;5088114;28;20455;-60
2023/09/22 06:44:16;;;;;;;0.80;0.30;;;;;;;-143.84;79.78;45070.00;5088314;28;20925;-60
2023/09/22 06:46:43;;;;;;;0.80;0.30;;;;;;;-143.84;78.79;45075.72;5088391;28;20859;-60
2023/09/22 06:49:10;;;;;;;0.80;0.30;;;;;;;-143.84;78.20;45068.13;5088031;28;20501;-60
2023/09/22 06:51:39;;;;;;;0.80;0.30;;;;;;;-143.84;78.66;45075.72;5088345;28;20440;-60
2023/09/22 06:54:06;;;;;;;0.80;0.30;;;;;;;-143.84;79.50;45050.97;5088676;28;20440;-60
2023/09/22 06:56:35;;;;;;;0.80;0.30;;;;;;;-143.84;77.68;45066.22;5088373;28;20809;-60
2023/09/22 06:59:06;;;;;;;0.80;0.40;;;;;;;-143.84;77.34;45085.25;5090041;28;20432;-60
2023/09/22 07:01:34;;;;;;;0.80;0.40;;;;;;;-143.84;76.15;45087.16;5091941;28;20530;-60
2023/09/22 07:04:01;;;;;;;0.80;0.30;;;;;;;-143.84;76.23;45075.72;5091758;28;21014;-60
2023/09/22 07:06:28;;;;;;;0.80;0.40;;;;;;;-143.84;79.52;45058.59;5091973;28;20865;-60
2023/09/22 07:08:57;;;;;;;2.50;0.90;;;;;;;-143.84;81.13;45071.91;5092090;28;20435;-60
2023/09/22 07:11:24;;;;;;;0.80;0.40;;;;;;;-143.84;80.71;45079.53;5091704;28;20479;-60
2023/09/22 07:13:51;;;;;;;0.80;0.40;;;;;;;-143.84;80.16;45079.53;5091696;28;20440;-60
2023/09/22 07:16:20;;;;;;;0.80;0.30;;;;;;;-143.84;80.02;45090.97;5091598;28;20961;-60
2023/09/22 07:18:47;;;;;;;0.80;0.30;;;;;;;-143.84;81.42;45064.31;5091434;28;20479;-60
2023/09/22 07:21:14;;;;;;;0.80;0.40;;;;;;;-143.84;81.26;45070.00;5091774;28;20447;-60
2023/09/22 07:23:41;;;;;;;0.80;0.40;;;;;;;-143.84;81.35;45070.00;5091084;28;20439;-60
2023/09/22 07:26:11;;;;;;;0.80;0.30;;;;;;;-143.84;81.50;45058.59;5091501;28;20821;-60
2023/09/22 07:28:39;;;;;;;0.80;0.30;;;;;;;-143.84;78.78;45056.69;5091351;28;20794;-60
2023/09/22 07:31:12;;;;;;;0.80;0.30;;;;;;;-143.84;75.21;45035.75;5091106;28;20532;-61
2023/09/22 07:33:40;;;;;;;0.80;0.30;;;;;;;-143.84;74.78;45054.78;5091037;28;20497;-60
2023/09/22 07:36:08;;;;;;;0.80;0.30;;;;;;;-143.84;73.05;45068.13;5090485;28;20437;-60
2023/09/22 07:38:36;;;;;;;0.80;0.30;;;;;;;-143.84;73.39;45068.13;5077301;28;20540;-60
2023/09/22 07:41:03;;;;;;;0.80;0.30;;;;;;;-143.84;74.10;45075.72;5070537;28;20809;-60
2023/09/22 07:43:32;;;;;;;0.80;0.30;;;;;;;-143.84;73.51;45033.84;5070401;28;20468;-60
2023/09/22 07:46:00;;;;;;;0.80;0.30;;;;;;;-143.84;73.53;45062.41;5070635;28;20437;-60
2023/09/22 07:48:27;;;;;;;0.80;0.30;;;;;;;-143.84;71.54;45075.72;5070504;28;21013;-60
2023/09/22 07:50:55;;;;;;;0.80;0.30;;;;;;;-143.84;70.49;45052.88;5070008;28;20481;-60
2023/09/22 07:53:25;;;;;;;0.80;0.40;;;;;;;-143.84;70.44;45070.00;5070255;28;20444;-60
2023/09/22 07:55:55;;;;;;;0.80;0.30;;;;;;;-143.84;69.87;45050.97;5070589;28;20934;-60
2023/09/22 07:58:22;;;;;;;1.37;0.50;;;;;;;-143.84;70.80;45066.22;5070440;28;20472;-60
2023/09/22 08:00:51;;;;;;;1.00;0.63;;;;;;;-143.84;69.83;45049.06;5070770;28;20468;-60
2023/09/22 08:03:20;;;;;;;0.90;0.60;;;;;;;-143.84;67.69;45026.22;5070458;28;20480;-60
2023/09/22 08:05:48;;;;;;;0.80;0.30;;;;;;;-143.84;68.03;45050.97;5070127;28;20441;-60
2023/09/22 08:08:17;;;;;;;0.80;0.30;;;;;;;-143.84;68.77;45047.16;5070168;28;20441;-60
2023/09/22 08:10:44;;;;;;;0.80;0.40;;;;;;;-143.84;68.43;45058.59;5069286;28;20484;-60
2023/09/22 08:13:11;;;;;;;0.80;0.30;;;;;;;-143.84;68.84;45064.31;5080213;28;20459;-60
2023/09/22 08:15:39;;;;;;;0.80;0.30;;;;;;;-143.84;66.04;45024.31;5070589;28;20456;-60
2023/09/22 08:18:08;;;;;;;0.80;0.33;;;;;;;-143.84;64.36;45037.66;5070050;28;20538;-60
2023/09/22 08:20:35;;;;;;;0.80;0.40;;;;;;;-143.84;64.96;45047.16;5069907;28;20449;-60
2023/09/22 08:23:02;;;;;;;0.87;0.40;;;;;;;-143.84;67.58;45050.97;5069976;28;20437;-60
2023/09/22 08:25:30;;;;;;;0.80;0.30;;;;;;;-143.84;67.69;45047.16;5069901;28;20499;-60
2023/09/22 08:27:58;;;;;;;0.80;0.30;;;;;;;-143.84;68.37;45079.53;5070052;28;20487;-60
2023/09/22 08:30:25;;;;;;;0.80;0.40;;;;;;;-143.84;69.13;45022.41;5070227;28;20484;-60
2023/09/22 08:32:53;;;;;;;0.80;0.30;;;;;;;-143.84;66.85;45045.25;5070564;28;20445;-60
2023/09/22 08:35:22;;;;;;;0.80;0.30;;;;;;;-143.84;67.63;45007.19;5069747;28;20494;-60
2023/09/22 08:37:49;;;;;;;0.80;0.30;;;;;;;-143.84;66.84;45033.84;5069638;28;20452;-60
2023/09/22 08:40:17;;;;;;;0.80;0.30;;;;;;;-143.84;68.99;45060.50;5069896;28;20789;-60
2023/09/22 08:42:47;;;;;;;0.80;0.37;;;;;;;-143.84;67.65;45047.16;5069752;28;20433;-60
2023/09/22 08:45:15;;;;;;;0.80;0.30;;;;;;;-143.84;66.13;45028.13;5069453;28;20441;-60
2023/09/22 08:47:45;;;;;;;0.80;0.30;;;;;;;-143.84;67.28;45028.13;5069745;28;21186;-60
2023/09/22 08:50:14;;;;;;;0.90;0.33;;;;;;;-143.84;65.67;45026.22;5069423;28;21028;-60
2023/09/22 08:52:45;;;;;;;0.90;0.50;;;;;;;-143.84;65.85;45031.94;5069454;28;20441;-60
2023/09/22 08:55:13;;;;;;;0.80;0.30;;;;;;;-143.84;67.73;45041.44;5069448;28;20444;-60
2023/09/22 08:57:44;;;;;;;0.87;0.30;;;;;;;-143.84;68.09;45043.34;5069327;28;20483;-60
2023/09/22 09:00:18;;;;;;;1.37;1.27;;;;;;;-143.84;65.47;45024.31;5069749;28;21123;-60
2023/09/22 09:02:46;;;;;;;0.90;0.30;;;;;;;-143.84;63.68;45031.94;5069369;28;20432;-60
2023/09/22 09:05:20;;;;;;;0.90;0.30;;;;;;;-143.84;66.28;45014.78;5069452;28;20562;-60
2023/09/22 09:07:49;;;;;;;0.80;0.37;;;;;;;-143.84;66.42;45028.13;5069202;28;20445;-60
2023/09/22 09:10:26;;;;;;;0.90;0.40;;;;;;;-143.84;65.90;45049.06;5069384;28;20480;-60
2023/09/22 09:12:54;;;;;;;0.80;0.30;;;;;;;-143.84;64.91;45020.50;5069148;28;20460;-60
2023/09/22 09:15:25;;;;;;;0.80;0.30;;;;;;;-143.84;64.93;45037.66;5068966;28;20441;-60
2023/09/22 09:18:06;;;;;;;0.90;0.40;;;;;;;-143.84;63.04;45030.03;5068193;28;20502;-60
2023/09/22 09:20:35;;;;;;;0.80;0.40;;;;;;;-143.84;64.79;45028.13;5074549;28;20454;-59
2023/09/22 09:23:15;;;;;;;0.90;0.30;;;;;;;-143.84;65.80;45052.88;5077843;28;20452;-60
2023/09/22 09:25:44;;;;;;;0.90;0.30;;;;;;;-143.84;63.28;45049.06;5085642;28;20448;-60
2023/09/22 09:28:12;;;;;;;0.90;0.30;;;;;;;-143.84;61.97;45020.50;5089142;28;20895;-60
2023/09/22 09:30:48;;;;;;;0.90;0.30;;;;;;;-143.84;63.74;45054.78;5089201;28;20921;-60
2023/09/22 09:33:16;;;;;;;0.90;0.30;;;;;;;-143.84;63.40;45039.53;5088563;28;20444;-60
2023/09/22 09:35:43;;;;;;;0.80;0.30;;;;;;;-143.84;67.28;45050.97;5088917;28;20515;-60
2023/09/22 09:38:10;;;;;;;0.83;0.30;;;;;;;-143.84;64.43;45050.97;5088920;28;20502;-60
2023/09/22 09:40:39;;;;;;;0.90;0.40;;;;;;;-143.84;65.13;45045.25;5089297;28;20762;-60
2023/09/22 09:43:10;;;;;;;0.87;0.30;;;;;;;-143.84;65.13;45028.13;5089153;28;20493;-60
2023/09/22 09:45:43;;;;;;;0.90;0.30;;;;;;;-143.84;66.63;45035.75;5088808;28;20481;-60
2023/09/22 09:48:14;;;;;;;0.87;0.30;;;;;;;-143.84;67.73;45030.03;5088082;28;20443;-60
2023/09/22 09:50:44;;;;;;;0.80;0.40;;;;;;;-143.84;67.62;45050.97;5088944;28;20467;-60
2023/09/22 09:53:22;;;;;;;0.90;0.50;;;;;;;-143.84;69.16;45054.78;5088915;28;20463;-60
2023/09/22 09:55:56;;;;;;;0.87;0.30;;;;;;;-143.84;67.38;45066.22;5089049;28;20446;-60
2023/09/22 09:58:26;;;;;;;0.90;0.30;;;;;;;-143.84;68.48;45047.16;5089151;28;20436;-60
2023/09/22 10:00:54;;;;;;;0.80;0.30;;;;;;;-143.84;69.34;45043.34;5088420;28;20448;-60
2023/09/22 10:03:22;;;;;;;0.80;0.30;;;;;;;-143.84;69.46;45028.13;5087912;28;20454;-60
2023/09/22 10:05:52;;;;;;;0.90;0.40;;;;;;;-143.84;69.14;45045.25;5088603;28;21273;-60
2023/09/22 10:08:20;;;;;;;0.90;0.40;;;;;;;-143.84;68.46;45066.22;5088487;28;20438;-60
2023/09/22 10:10:49;;;;;;;0.80;0.30;;;;;;;-143.84;68.92;45045.25;5088551;28;20479;-60
2023/09/22 10:13:18;;;;;;;0.80;0.30;;;;;;;-143.84;69.80;45043.34;5081612;28;20479;-60
2023/09/22 10:15:53;;;;;;;0.80;0.30;;;;;;;-143.84;70.57;45039.53;5072261;28;20826;-60
2023/09/22 10:18:21;;;;;;;0.80;0.33;;;;;;;-143.84;69.86;45026.22;5068332;28;20483;-60
2023/09/22 10:20:49;;;;;;;0.80;0.30;;;;;;;-143.84;70.16;45041.44;5068133;28;20490;-60
2023/09/22 10:23:18;;;;;;;0.80;0.40;;;;;;;-143.84;68.50;45024.31;5068183;28;20444;-60
2023/09/22 10:26:15;;;;;;;0.80;0.30;;;;;;;-143.84;69.17;45030.03;5068258;28;20441;-60
2023/09/22 10:28:44;;;;;;;0.80;0.30;;;;;;;-143.84;69.74;45049.06;5068726;28;20824;-60
2023/09/22 10:31:11;;;;;;;0.80;0.30;;;;;;;-143.84;67.92;45043.34;5068171;28;20499;-59
2023/09/22 10:33:38;;;;;;;0.87;0.30;;;;;;;-143.84;67.63;45043.34;5069578;28;21338;-60
2023/09/22 10:36:08;;;;;;;0.80;0.30;;;;;;;-143.84;68.78;45039.53;5086910;28;20512;-58
2023/09/22 10:38:56;;;;;;;0.83;0.30;;;;;;;-143.84;67.55;45033.84;5092183;28;20462;-58
2023/09/22 10:41:23;;;;;;;1.40;0.77;;;;;;;-143.84;67.15;45050.97;5091754;28;20539;-58
2023/09/22 10:43:59;;;;;;;0.90;0.30;;;;;;;-143.84;63.89;45060.50;5091639;28;20540;-58
2023/09/22 10:46:27;;;;;;;0.80;0.30;;;;;;;-143.84;63.91;45045.25;5091942;28;20443;-58
2023/09/22 10:48:54;;;;;;;1.00;0.50;;;;;;;-143.84;63.85;45018.59;5091663;28;20926;-59
2023/09/22 10:51:23;;;;;;;0.90;0.30;;;;;;;-143.84;66.38;45045.25;5084299;28;21013;-58
2023/09/22 10:54:00;;;;;;;0.90;0.30;;;;;;;-143.84;63.96;45045.25;5087903;28;20530;-58
2023/09/22 10:56:28;;;;;;;0.90;0.30;;;;;;;-143.84;62.32;45060.50;5091454;28;21009;-58
2023/09/22 10:58:55;;;;;;;0.90;0.30;;;;;;;-143.84;62.67;45020.50;5091705;28;20443;-58
2023/09/22 11:01:24;;;;;;;0.90;0.40;;;;;;;-143.84;64.85;45045.25;5091820;28;20443;-58
2023/09/22 11:03:53;;;;;;;0.90;0.40;;;;;;;-143.84;66.49;45047.16;5092178;28;20530;-59
2023/09/22 11:06:21;;;;;;;0.90;0.40;;;;;;;-143.84;63.26;45041.44;5091864;28;20439;-58
2023/09/22 11:08:50;;;;;;;1.50;0.60;;;;;;;-143.84;62.06;45035.75;5091900;28;20512;-59
2023/09/22 11:11:18;;;;;;;0.90;0.40;;;;;;;-143.84;59.39;45026.22;5091261;28;20541;-59
2023/09/22 11:13:52;;;;;;;0.90;0.40;;;;;;;-143.84;59.90;45030.03;5091528;28;20431;-58
2023/09/22 11:16:20;;;;;;;0.80;0.30;;;;;;;-143.84;58.39;45068.13;5091944;28;20549;-58
2023/09/22 11:18:49;;;;;;;0.90;0.30;;;;;;;-143.84;57.63;45045.25;5091813;28;20479;-59
2023/09/22 11:21:20;;;;;;;0.90;0.53;;;;;;;-143.84;59.36;45049.06;5091597;28;20451;-58
2023/09/22 11:23:47;;;;;;;1.20;0.50;;;;;;;-143.84;58.39;45037.66;5091528;28;20444;-58